createdAt,value
2022-08-03T00:02:32.551Z,25.8
2022-08-03T00:21:49.466Z,25.7
2022-08-03T00:42:55.085Z,25.7
2022-08-03T01:42:31.986Z,25.5
2022-08-03T02:02:15.852Z,25.5
2022-08-03T02:21:56.202Z,25.4
2022-08-03T02:41:49.113Z,25.4
2022-08-03T03:02:09.418Z,25.3
2022-08-03T03:21:48.012Z,25.2
2022-08-03T03:42:32.610Z,25.2
2022-08-03T04:42:02.124Z,23.1
2022-08-03T05:02:32.772Z,22.3
2022-08-03T05:22:31.666Z,23.2
2022-08-03T05:42:34.021Z,24
2022-08-03T06:01:48.722Z,24.2
2022-08-03T06:22:08.987Z,24.4
2022-08-03T06:41:47.337Z,24.5
2022-08-03T07:01:48.926Z,24.6
2022-08-03T07:41:55.930Z,24.7
2022-08-03T08:21:53.309Z,24.9
2022-08-03T09:21:49.726Z,25.1
2022-08-03T09:42:14.579Z,25.1
2022-08-03T10:01:49.319Z,25.2
2022-08-03T10:21:48.998Z,25.2
2022-08-03T11:02:12.299Z,25.4
2022-08-03T11:41:49.387Z,25.5
2022-08-03T12:21:56.690Z,25.7
2022-08-03T13:02:11.309Z,25.8
2022-08-03T13:21:53.173Z,25.9
2022-08-03T13:41:54.282Z,26.1
2022-08-03T14:02:32.882Z,26.2
2022-08-03T14:22:36.531Z,26.3
2022-08-03T14:41:49.350Z,26.4
2022-08-03T15:02:01.919Z,26.6
2022-08-03T15:22:24.806Z,26.9
2022-08-03T15:41:48.482Z,27.1
2022-08-03T16:01:50.398Z,27.2
2022-08-03T16:21:49.964Z,27.5
2022-08-03T16:42:32.549Z,27.7
2022-08-03T20:21:49.780Z,27.1
2022-08-03T20:42:56.457Z,26.8
2022-08-03T21:21:48.301Z,26.6
2022-08-03T22:03:15.463Z,26.3
2022-08-03T22:21:49.724Z,26.3
2022-08-03T22:42:33.064Z,26.2
2022-08-03T23:02:15.255Z,26.1
2022-08-03T23:21:54.038Z,25.9
2022-08-03T23:42:10.700Z,25.8
